Time,TemperatureF,DewpointF,PressureIn,WindDirection,WindDirectionDegrees,WindSpeedMPH,WindSpeedGustMPH,Humidity,HourlyPrecipIn,Conditions,Clouds,dailyrainin,SoftwareType,DateUTC
2013-01-10 00:00:00,50.6,30.1,30.44,South,190,1.0,11.0,45,0.00,,---,0.00,VWS V14.01,2013-01-10 05:00:00,
2013-01-10 00:01:00,50.6,30.1,30.43,SW,221,2.0,3.0,45,0.00,,---,0.00,VWS V14.01,2013-01-10 05:01:00,
2013-01-10 00:02:00,50.5,30.0,30.43,SW,221,1.0,3.0,45,0.00,,---,0.00,VWS V14.01,2013-01-10 05:02:00,
2013-01-10 00:07:00,50.1,29.6,30.43,WSW,253,4.0,4.0,45,0.00,,---,0.00,VWS V14.01,2013-01-10 05:07:00,
2013-01-10 00:12:00,49.7,29.8,30.44,SSE,161,0.0,6.0,46,0.00,,---,0.00,VWS V14.01,2013-01-10 05:12:00,
2013-01-10 00:17:00,49.2,29.9,30.44,South,175,0.0,6.0,47,0.00,,---,0.00,VWS V14.01,2013-01-10 05:17:00,
2013-01-10 00:22:00,48.4,30.1,30.44,South,175,2.0,6.0,49,0.00,,---,0.00,VWS V14.01,2013-01-10 05:22:00,
2013-01-10 00:27:00,47.7,30.0,30.44,South,182,1.0,6.0,50,0.00,,---,0.00,VWS V14.01,2013-01-10 05:27:00,
2013-01-10 00:31:00,47.2,29.5,30.44,South,182,3.0,4.0,50,0.00,,---,0.00,VWS V14.01,2013-01-10 05:31:00,
2013-01-10 00:36:00,47.0,29.3,30.44,South,182,1.0,4.0,50,0.00,,---,0.00,VWS V14.01,2013-01-10 05:36:00,
2013-01-10 00:41:00,47.1,29.4,30.44,SSE,150,2.0,4.0,50,0.00,,---,0.00,VWS V14.01,2013-01-10 05:41:00,
2013-01-10 00:46:00,47.2,29.5,30.44,SW,223,2.0,5.0,50,0.00,,---,0.00,VWS V14.01,2013-01-10 05:46:00,
2013-01-10 00:51:00,47.3,29.6,30.44,SW,232,0.0,5.0,50,0.00,,---,0.00,VWS V14.01,2013-01-10 05:51:00,
2013-01-10 00:56:00,47.6,29.4,30.45,SW,232,1.0,5.0,49,0.00,,---,0.00,VWS V14.01,2013-01-10 05:56:00,
2013-01-10 01:01:00,47.9,29.2,30.44,SW,232,0.0,0.0,48,0.00,,---,0.00,VWS V14.01,2013-01-10 06:01:00,
2013-01-10 01:06:00,48.0,29.3,30.44,SW,232,1.0,1.0,48,0.00,,---,0.00,VWS V14.01,2013-01-10 06:06:00,
2013-01-10 01:11:00,48.0,29.3,30.44,SW,232,0.0,2.0,48,0.00,,---,0.00,VWS V14.01,2013-01-10 06:11:00,
2013-01-10 01:16:00,47.9,29.2,30.44,SW,232,1.0,2.0,48,0.00,,---,0.00,VWS V14.01,2013-01-10 06:16:00,
2013-01-10 01:21:00,47.8,29.6,30.45,SW,232,0.0,3.0,49,0.00,,---,0.00,VWS V14.01,2013-01-10 06:21:00,
2013-01-10 01:26:00,47.6,29.4,30.45,SW,232,0.0,3.0,49,0.00,,---,0.00,VWS V14.01,2013-01-10 06:26:00,
2013-01-10 01:31:00,47.1,29.4,30.45,SW,232,0.0,0.0,50,0.00,,---,0.00,VWS V14.01,2013-01-10 06:31:00,
2013-01-10 01:36:00,46.8,29.2,30.45,SW,232,0.0,2.0,50,0.00,,---,0.00,VWS V14.01,2013-01-10 06:36:00,
2013-01-10 01:41:00,46.5,29.4,30.45,SW,232,2.0,2.0,51,0.00,,---,0.00,VWS V14.01,2013-01-10 06:41:00,
2013-01-10 01:46:00,46.6,29.5,30.45,SW,230,2.0,3.0,51,0.00,,---,0.00,VWS V14.01,2013-01-10 06:46:00,
2013-01-10 01:51:00,46.5,29.8,30.45,SW,230,0.0,3.0,52,0.00,,---,0.00,VWS V14.01,2013-01-10 06:51:00,
2013-01-10 01:56:00,46.2,29.6,30.45,SW,231,0.0,3.0,52,0.00,,---,0.00,VWS V14.01,2013-01-10 06:56:00,
2013-01-10 02:01:00,46.0,29.8,30.45,SW,231,1.0,2.0,53,0.00,,---,0.00,VWS V14.01,2013-01-10 07:01:00,
2013-01-10 02:06:00,46.0,29.8,30.45,SW,231,2.0,2.0,53,0.00,,---,0.00,VWS V14.01,2013-01-10 07:06:00,
2013-01-10 02:11:00,46.1,29.9,30.45,SW,231,0.0,2.0,53,0.00,,---,0.00,VWS V14.01,2013-01-10 07:11:00,
2013-01-10 02:16:00,45.6,29.9,30.45,SW,230,2.0,4.0,54,0.00,,---,0.00,VWS V14.01,2013-01-10 07:16:00,
2013-01-10 02:21:00,44.3,30.0,30.46,South,191,2.0,6.0,57,0.00,,---,0.00,VWS V14.01,2013-01-10 07:21:00,
2013-01-10 02:26:00,43.5,31.0,30.46,SSW,192,1.0,6.0,61,0.00,,---,0.00,VWS V14.01,2013-01-10 07:26:00,
2013-01-10 02:31:00,43.0,29.7,30.46,SSW,192,2.0,3.0,59,0.00,,---,0.00,VWS V14.01,2013-01-10 07:31:00,
2013-01-10 02:36:00,42.4,29.5,30.46,SSW,192,0.0,3.0,60,0.00,,---,0.00,VWS V14.01,2013-01-10 07:36:00,
2013-01-10 02:41:00,42.1,29.6,30.46,South,191,0.0,3.0,61,0.00,,---,0.00,VWS V14.01,2013-01-10 07:41:00,
2013-01-10 02:46:00,41.9,29.9,30.46,South,191,0.0,3.0,62,0.00,,---,0.00,VWS V14.01,2013-01-10 07:46:00,
2013-01-10 02:51:00,41.9,29.9,30.46,SSW,192,0.0,3.0,62,0.00,,---,0.00,VWS V14.01,2013-01-10 07:51:00,
2013-01-10 02:56:00,42.0,29.9,30.47,SSW,192,0.0,3.0,62,0.00,,---,0.00,VWS V14.01,2013-01-10 07:56:00,
2013-01-10 03:01:00,42.3,29.8,30.46,South,191,1.0,1.0,61,0.00,,---,0.00,VWS V14.01,2013-01-10 08:01:00,
2013-01-10 03:06:00,41.9,29.9,30.47,SSW,192,2.0,4.0,62,0.00,,---,0.00,VWS V14.01,2013-01-10 08:06:00,
2013-01-10 03:11:00,42.2,30.1,30.47,SSW,192,0.0,4.0,62,0.00,,---,0.00,VWS V14.01,2013-01-10 08:11:00,
2013-01-10 03:16:00,42.2,30.1,30.46,SSW,192,1.0,4.0,62,0.00,,---,0.00,VWS V14.01,2013-01-10 08:16:00,
2013-01-10 03:21:00,41.8,29.8,30.46,SSW,192,1.0,4.0,62,0.00,,---,0.00,VWS V14.01,2013-01-10 08:21:00,
2013-01-10 03:26:00,41.6,30.0,30.46,SSW,209,3.0,4.0,63,0.00,,---,0.00,VWS V14.01,2013-01-10 08:26:00,
2013-01-10 03:31:00,42.4,29.9,30.46,WNW,292,3.0,4.0,61,0.00,,---,0.00,VWS V14.01,2013-01-10 08:31:00,
2013-01-10 03:36:00,42.8,30.3,30.45,NW,311,2.0,4.0,61,0.00,,---,0.00,VWS V14.01,2013-01-10 08:36:00,
2013-01-10 03:41:00,42.7,29.8,30.45,NW,311,2.0,4.0,60,0.00,,---,0.00,VWS V14.01,2013-01-10 08:41:00,
2013-01-10 03:46:00,42.4,29.9,30.45,South,177,1.0,4.0,61,0.00,,---,0.00,VWS V14.01,2013-01-10 08:46:00,
2013-01-10 03:51:00,41.8,29.8,30.45,South,176,2.0,4.0,62,0.00,,---,0.00,VWS V14.01,2013-01-10 08:51:00,
2013-01-10 03:56:00,41.5,29.9,30.46,South,177,1.0,4.0,63,0.00,,---,0.00,VWS V14.01,2013-01-10 08:56:00,
2013-01-10 04:01:00,41.4,29.8,30.46,South,177,2.0,2.0,63,0.00,,---,0.00,VWS V14.01,2013-01-10 09:01:00,
2013-01-10 04:06:00,41.3,29.7,30.46,South,177,0.0,2.0,63,0.00,,---,0.00,VWS V14.01,2013-01-10 09:06:00,
2013-01-10 04:11:00,41.3,29.7,30.46,South,177,2.0,2.0,63,0.00,,---,0.00,VWS V14.01,2013-01-10 09:11:00,
2013-01-10 04:16:00,41.3,29.3,30.46,South,177,2.0,2.0,62,0.00,,---,0.00,VWS V14.01,2013-01-10 09:16:00,
2013-01-10 04:21:00,40.9,29.7,30.46,South,176,3.0,3.0,64,0.00,,---,0.00,VWS V14.01,2013-01-10 09:21:00,
2013-01-10 04:26:00,40.4,29.6,30.46,WNW,296,3.0,3.0,65,0.00,,---,0.00,VWS V14.01,2013-01-10 09:26:00,
2013-01-10 04:31:00,39.8,29.0,30.46,WNW,296,0.0,0.0,65,0.00,,---,0.00,VWS V14.01,2013-01-10 09:31:00,
2013-01-10 04:36:00,39.3,28.9,30.46,WNW,300,4.0,5.0,66,0.00,,---,0.00,VWS V14.01,2013-01-10 09:36:00,
2013-01-10 04:41:00,38.4,28.8,30.46,WNW,300,0.0,5.0,68,0.00,,---,0.00,VWS V14.01,2013-01-10 09:41:00,
2013-01-10 04:46:00,38.0,28.8,30.46,WNW,300,1.0,5.0,69,0.00,,---,0.00,VWS V14.01,2013-01-10 09:46:00,
2013-01-10 04:51:00,37.5,28.6,30.46,WNW,300,1.0,5.0,70,0.00,,---,0.00,VWS V14.01,2013-01-10 09:51:00,
2013-01-10 04:56:00,37.1,28.6,30.47,WSW,256,0.0,5.0,71,0.00,,---,0.00,VWS V14.01,2013-01-10 09:56:00,
2013-01-10 05:01:00,36.8,28.6,30.47,WSW,256,2.0,2.0,72,0.00,,---,0.00,VWS V14.01,2013-01-10 10:01:00,
2013-01-10 05:06:00,36.3,28.5,30.47,WSW,257,0.0,2.0,73,0.00,,---,0.00,VWS V14.01,2013-01-10 10:06:00,
2013-01-10 05:11:00,35.8,28.3,30.47,NW,313,3.0,3.0,74,0.00,,---,0.00,VWS V14.01,2013-01-10 10:11:00,
2013-01-10 05:16:00,35.5,28.4,30.47,NW,313,1.0,3.0,75,0.00,,---,0.00,VWS V14.01,2013-01-10 10:16:00,
2013-01-10 05:21:00,35.3,28.5,30.48,NW,313,0.0,4.0,76,0.00,,---,0.00,VWS V14.01,2013-01-10 10:21:00,
2013-01-10 05:26:00,34.8,28.3,30.48,ENE,72,0.0,4.0,77,0.00,,---,0.00,VWS V14.01,2013-01-10 10:26:00,
2013-01-10 05:31:00,34.7,28.2,30.48,ENE,72,1.0,1.0,77,0.00,,---,0.00,VWS V14.01,2013-01-10 10:31:00,
2013-01-10 05:36:00,34.6,28.5,30.48,ENE,72,0.0,1.0,78,0.00,,---,0.00,VWS V14.01,2013-01-10 10:36:00,
2013-01-10 05:41:00,34.5,28.4,30.49,ENE,72,0.0,1.0,78,0.00,,---,0.00,VWS V14.01,2013-01-10 10:41:00,
2013-01-10 05:46:00,34.5,28.4,30.49,ENE,72,0.0,1.0,78,0.00,,---,0.00,VWS V14.01,2013-01-10 10:46:00,
2013-01-10 05:51:00,34.8,28.6,30.49,ENE,72,0.0,2.0,78,0.00,,---,0.00,VWS V14.01,2013-01-10 10:51:00,
2013-01-10 05:56:00,34.7,28.5,30.50,ENE,72,0.0,2.0,78,0.00,,---,0.00,VWS V14.01,2013-01-10 10:56:00,
2013-01-10 06:01:00,34.4,28.6,30.50,ENE,72,0.0,0.0,79,0.00,,---,0.00,VWS V14.01,2013-01-10 11:01:00,
2013-01-10 06:06:00,34.4,28.6,30.50,ENE,72,0.0,0.0,79,0.00,,---,0.00,VWS V14.01,2013-01-10 11:06:00,
2013-01-10 06:11:00,34.4,28.6,30.50,ENE,72,0.0,0.0,79,0.00,,---,0.00,VWS V14.01,2013-01-10 11:11:00,
2013-01-10 06:16:00,34.3,28.5,30.51,ENE,72,0.0,1.0,79,0.00,,---,0.00,VWS V14.01,2013-01-10 11:16:00,
2013-01-10 06:21:00,34.3,28.8,30.51,ENE,72,0.0,2.0,80,0.00,,---,0.00,VWS V14.01,2013-01-10 11:21:00,
2013-01-10 06:26:00,34.3,28.8,30.51,ENE,72,0.0,2.0,80,0.00,,---,0.00,VWS V14.01,2013-01-10 11:26:00,
2013-01-10 06:31:00,34.4,28.6,30.51,ENE,72,0.0,0.0,79,0.00,,---,0.00,VWS V14.01,2013-01-10 11:31:00,
2013-01-10 06:36:00,34.4,28.6,30.52,ENE,72,0.0,0.0,79,0.00,,---,0.00,VWS V14.01,2013-01-10 11:36:00,
2013-01-10 06:41:00,34.4,28.3,30.52,ENE,72,0.0,2.0,78,0.00,,---,0.00,VWS V14.01,2013-01-10 11:41:00,
2013-01-10 06:46:00,34.4,28.3,30.53,ENE,72,1.0,2.0,78,0.00,,---,0.00,VWS V14.01,2013-01-10 11:46:00,
2013-01-10 06:51:00,34.4,28.3,30.53,ENE,72,0.0,2.0,78,0.00,,---,0.00,VWS V14.01,2013-01-10 11:51:00,
2013-01-10 06:56:00,34.3,28.2,30.53,ENE,72,0.0,2.0,78,0.00,,---,0.00,VWS V14.01,2013-01-10 11:56:00,
2013-01-10 07:01:00,33.7,27.6,30.53,ENE,72,0.0,1.0,78,0.00,,---,0.00,VWS V14.01,2013-01-10 12:01:00,
2013-01-10 07:06:00,33.3,27.5,30.54,ENE,72,0.0,1.0,79,0.00,,---,0.00,VWS V14.01,2013-01-10 12:06:00,
2013-01-10 07:11:00,33.1,27.6,30.54,ENE,72,0.0,1.0,80,0.00,,---,0.00,VWS V14.01,2013-01-10 12:11:00,
2013-01-10 07:16:00,33.0,27.5,30.54,ENE,72,0.0,1.0,80,0.00,,---,0.00,VWS V14.01,2013-01-10 12:16:00,
2013-01-10 07:21:00,32.9,27.4,30.55,ENE,72,0.0,1.0,80,0.00,,---,0.00,VWS V14.01,2013-01-10 12:21:00,
2013-01-10 07:26:00,32.8,27.6,30.55,ENE,72,0.0,2.0,81,0.00,,---,0.00,VWS V14.01,2013-01-10 12:26:00,
2013-01-10 07:31:00,32.7,27.5,30.55,ENE,72,0.0,0.0,81,0.00,,---,0.00,VWS V14.01,2013-01-10 12:31:00,
2013-01-10 07:36:00,32.6,27.7,30.56,ENE,72,2.0,2.0,82,0.00,,---,0.00,VWS V14.01,2013-01-10 12:36:00,
2013-01-10 07:41:00,32.4,27.5,30.56,ENE,72,0.0,2.0,82,0.00,,---,0.00,VWS V14.01,2013-01-10 12:41:00,
2013-01-10 07:46:00,32.2,27.3,30.57,ENE,72,0.0,2.0,82,0.00,,---,0.00,VWS V14.01,2013-01-10 12:46:00,
2013-01-10 07:51:00,32.2,27.6,30.57,ENE,72,0.0,2.0,83,0.00,,---,0.00,VWS V14.01,2013-01-10 12:51:00,
2013-01-10 07:56:00,32.5,27.9,30.58,ENE,72,0.0,2.0,83,0.00,,---,0.00,VWS V14.01,2013-01-10 12:56:00,
2013-01-10 08:01:00,32.8,27.9,30.58,ENE,72,0.0,0.0,82,0.00,,---,0.00,VWS V14.01,2013-01-10 13:01:00,
2013-01-10 08:06:00,32.9,28.0,30.58,ENE,72,0.0,0.0,82,0.00,,---,0.00,VWS V14.01,2013-01-10 13:06:00,
2013-01-10 08:11:00,33.1,28.2,30.59,ENE,72,0.0,0.0,82,0.00,,---,0.00,VWS V14.01,2013-01-10 13:11:00,
2013-01-10 08:16:00,33.4,28.5,30.59,ENE,72,0.0,0.0,82,0.00,,---,0.00,VWS V14.01,2013-01-10 13:16:00,
2013-01-10 08:21:00,33.7,28.5,30.59,ENE,72,0.0,0.0,81,0.00,,---,0.00,VWS V14.01,2013-01-10 13:21:00,
2013-01-10 08:26:00,34.2,29.0,30.59,ENE,72,0.0,1.0,81,0.00,,---,0.00,VWS V14.01,2013-01-10 13:26:00,
2013-01-10 08:31:00,34.8,29.6,30.59,ENE,72,0.0,0.0,81,0.00,,---,0.00,VWS V14.01,2013-01-10 13:31:00,
2013-01-10 08:36:00,35.5,30.0,30.59,ENE,72,0.0,1.0,80,0.00,,---,0.00,VWS V14.01,2013-01-10 13:36:00,
2013-01-10 08:41:00,36.0,29.8,30.59,ENE,72,1.0,1.0,78,0.00,,---,0.00,VWS V14.01,2013-01-10 13:41:00,
2013-01-10 08:46:00,36.4,29.9,30.59,ENE,72,0.0,1.0,77,0.00,,---,0.00,VWS V14.01,2013-01-10 13:46:00,
2013-01-10 08:51:00,36.8,30.3,30.60,ENE,72,2.0,2.0,77,0.00,,---,0.00,VWS V14.01,2013-01-10 13:51:00,
2013-01-10 08:56:00,36.5,30.3,30.60,ENE,72,0.0,2.0,78,0.00,,---,0.00,VWS V14.01,2013-01-10 13:56:00,
2013-01-10 09:01:00,36.7,30.8,30.60,ENE,72,1.0,1.0,79,0.00,,---,0.00,VWS V14.01,2013-01-10 14:01:00,
2013-01-10 09:06:00,37.2,31.3,30.60,ENE,72,0.0,1.0,79,0.00,,---,0.00,VWS V14.01,2013-01-10 14:06:00,
2013-01-10 09:11:00,38.4,31.8,30.60,ENE,72,0.0,1.0,77,0.00,,---,0.00,VWS V14.01,2013-01-10 14:11:00,
2013-01-10 09:16:00,39.5,31.9,30.60,ENE,72,1.0,1.0,74,0.00,,---,0.00,VWS V14.01,2013-01-10 14:16:00,
2013-01-10 09:20:00,40.2,31.6,30.60,ENE,72,1.0,2.0,71,0.00,,---,0.00,VWS V14.01,2013-01-10 14:20:00,
2013-01-10 09:25:00,40.4,31.0,30.60,South,169,2.0,3.0,69,0.00,,---,0.00,VWS V14.01,2013-01-10 14:25:00,
2013-01-10 09:30:00,40.6,30.9,30.61,South,169,2.0,2.0,68,0.00,,---,0.00,VWS V14.01,2013-01-10 14:30:00,
2013-01-10 09:35:00,41.0,32.3,30.61,South,169,1.0,3.0,71,0.00,,---,0.00,VWS V14.01,2013-01-10 14:35:00,
2013-01-10 09:40:00,41.5,31.4,30.61,South,169,0.0,3.0,67,0.00,,---,0.00,VWS V14.01,2013-01-10 14:40:00,
2013-01-10 09:45:00,42.2,31.7,30.61,WSW,240,0.0,4.0,66,0.00,,---,0.00,VWS V14.01,2013-01-10 14:45:00,
2013-01-10 09:50:00,42.2,31.3,30.61,West,259,0.0,4.0,65,0.00,,---,0.00,VWS V14.01,2013-01-10 14:50:00,
2013-01-10 09:55:00,42.4,31.5,30.61,WSW,246,2.0,4.0,65,0.00,,---,0.00,VWS V14.01,2013-01-10 14:55:00,
2013-01-10 10:00:00,42.7,31.4,30.61,SSW,200,1.0,1.0,64,0.00,,---,0.00,VWS V14.01,2013-01-10 15:00:00,
2013-01-10 10:05:00,43.3,32.3,30.61,SSW,200,1.0,1.0,65,0.00,,---,0.00,VWS V14.01,2013-01-10 15:05:00,
2013-01-10 10:10:00,44.5,32.7,30.61,SSW,199,3.0,4.0,63,0.00,,---,0.00,VWS V14.01,2013-01-10 15:10:00,
2013-01-10 10:15:00,45.0,32.8,30.61,SSW,199,3.0,4.0,62,0.00,,---,0.00,VWS V14.01,2013-01-10 15:15:00,
2013-01-10 10:20:00,45.4,32.8,30.61,SSW,199,0.0,4.0,61,0.00,,---,0.00,VWS V14.01,2013-01-10 15:20:00,
2013-01-10 10:25:00,46.0,32.5,30.60,SSW,199,2.0,4.0,59,0.00,,---,0.00,VWS V14.01,2013-01-10 15:25:00,
2013-01-10 10:30:00,46.4,32.9,30.60,SSW,199,1.0,1.0,59,0.00,,---,0.00,VWS V14.01,2013-01-10 15:30:00,
2013-01-10 10:35:00,46.8,32.0,30.60,ESE,104,1.0,3.0,56,0.00,,---,0.00,VWS V14.01,2013-01-10 15:35:00,
2013-01-10 10:40:00,47.0,32.6,30.59,ESE,103,0.0,3.0,57,0.00,,---,0.00,VWS V14.01,2013-01-10 15:40:00,
2013-01-10 10:45:00,47.3,32.8,30.60,North,360,1.0,3.0,57,0.00,,---,0.00,VWS V14.01,2013-01-10 15:45:00,
2013-01-10 10:50:00,47.2,32.3,30.59,North,360,1.0,3.0,56,0.00,,---,0.00,VWS V14.01,2013-01-10 15:50:00,
2013-01-10 10:55:00,47.3,32.4,30.59,NNW,348,0.0,3.0,56,0.00,,---,0.00,VWS V14.01,2013-01-10 15:55:00,
2013-01-10 11:00:00,47.7,32.3,30.58,NNW,348,2.0,4.0,55,0.00,,---,0.00,VWS V14.01,2013-01-10 16:00:00,
2013-01-10 11:05:00,47.9,32.1,30.58,WNW,303,1.0,4.0,54,0.00,,---,0.00,VWS V14.01,2013-01-10 16:05:00,
2013-01-10 11:10:00,48.3,32.4,30.58,NW,304,0.0,4.0,54,0.00,,---,0.00,VWS V14.01,2013-01-10 16:10:00,
2013-01-10 11:15:00,48.8,32.9,30.57,NW,304,2.0,4.0,54,0.00,,---,0.00,VWS V14.01,2013-01-10 16:15:00,
2013-01-10 11:20:00,49.2,32.8,30.57,NW,307,1.0,4.0,53,0.00,,---,0.00,VWS V14.01,2013-01-10 16:20:00,
2013-01-10 11:25:00,49.6,33.2,30.56,NW,307,1.0,4.0,53,0.00,,---,0.00,VWS V14.01,2013-01-10 16:25:00,
2013-01-10 11:30:00,50.0,33.1,30.56,NW,309,2.0,4.0,52,0.00,,---,0.00,VWS V14.01,2013-01-10 16:30:00,
2013-01-10 11:35:00,49.8,32.9,30.56,NW,309,2.0,3.0,52,0.00,,---,0.00,VWS V14.01,2013-01-10 16:35:00,
2013-01-10 11:40:00,49.9,32.5,30.55,NW,309,2.0,3.0,51,0.00,,---,0.00,VWS V14.01,2013-01-10 16:40:00,
2013-01-10 11:45:00,50.4,33.0,30.55,NW,309,3.0,4.0,51,0.00,,---,0.00,VWS V14.01,2013-01-10 16:45:00,
2013-01-10 11:50:00,50.4,33.0,30.55,NW,311,1.0,4.0,51,0.00,,---,0.00,VWS V14.01,2013-01-10 16:50:00,
2013-01-10 11:55:00,50.6,31.1,30.54,NW,311,2.0,4.0,47,0.00,,---,0.00,VWS V14.01,2013-01-10 16:55:00,
2013-01-10 12:00:00,50.9,31.4,30.54,NW,310,2.0,4.0,47,0.00,,---,0.00,VWS V14.01,2013-01-10 17:00:00,
2013-01-10 12:05:00,51.2,32.2,30.55,NW,312,1.0,3.0,48,0.00,,---,0.00,VWS V14.01,2013-01-10 17:05:00,
2013-01-10 12:10:00,51.6,32.6,30.54,NW,312,2.0,3.0,48,0.00,,---,0.00,VWS V14.01,2013-01-10 17:10:00,
2013-01-10 12:15:00,51.9,32.3,30.53,NW,312,1.0,3.0,47,0.00,,---,0.00,VWS V14.01,2013-01-10 17:15:00,
2013-01-10 12:20:00,52.4,32.8,30.53,NW,311,1.0,3.0,47,0.00,,---,0.00,VWS V14.01,2013-01-10 17:20:00,
2013-01-10 12:25:00,52.9,33.2,30.53,NNW,346,4.0,4.0,47,0.00,,---,0.00,VWS V14.01,2013-01-10 17:25:00,
2013-01-10 12:30:00,53.2,33.0,30.52,NE,41,2.0,4.0,46,0.00,,---,0.00,VWS V14.01,2013-01-10 17:30:00,
2013-01-10 12:35:00,53.2,32.4,30.53,NE,41,0.0,2.0,45,0.00,,---,0.00,VWS V14.01,2013-01-10 17:35:00,
2013-01-10 12:40:00,53.4,33.2,30.52,NE,42,1.0,2.0,46,0.00,,---,0.00,VWS V14.01,2013-01-10 17:40:00,
2013-01-10 12:45:00,53.3,33.1,30.52,NNE,20,3.0,3.0,46,0.00,,---,0.00,VWS V14.01,2013-01-10 17:45:00,
2013-01-10 12:50:00,53.4,33.2,30.52,NNE,13,2.0,3.0,46,0.00,,---,0.00,VWS V14.01,2013-01-10 17:50:00,
2013-01-10 12:55:00,53.6,32.8,30.52,NNE,13,0.0,3.0,45,0.00,,---,0.00,VWS V14.01,2013-01-10 17:55:00,
2013-01-10 13:00:00,54.3,33.4,30.52,NNE,13,0.0,3.0,45,0.00,,---,0.00,VWS V14.01,2013-01-10 18:00:00,
2013-01-10 13:05:00,54.3,33.4,30.52,North,5,3.0,4.0,45,0.00,,---,0.00,VWS V14.01,2013-01-10 18:05:00,
2013-01-10 13:10:00,54.1,32.7,30.52,WNW,299,2.0,4.0,44,0.00,,---,0.00,VWS V14.01,2013-01-10 18:10:00,
2013-01-10 13:15:00,54.0,32.6,30.52,ESE,103,0.0,4.0,44,0.00,,---,0.00,VWS V14.01,2013-01-10 18:15:00,
2013-01-10 13:20:00,54.0,32.6,30.51,WNW,302,2.0,4.0,44,0.00,,---,0.00,VWS V14.01,2013-01-10 18:20:00,
2013-01-10 13:25:00,54.1,32.1,30.51,NNE,19,0.0,4.0,43,0.00,,---,0.00,VWS V14.01,2013-01-10 18:25:00,
2013-01-10 13:30:00,54.5,32.5,30.51,NNE,17,2.0,4.0,43,0.00,,---,0.00,VWS V14.01,2013-01-10 18:30:00,
2013-01-10 13:35:00,54.8,32.8,30.51,NNE,12,0.0,3.0,43,0.00,,---,0.00,VWS V14.01,2013-01-10 18:35:00,
2013-01-10 13:40:00,55.3,32.6,30.51,NNE,13,1.0,3.0,42,0.00,,---,0.00,VWS V14.01,2013-01-10 18:40:00,
2013-01-10 13:45:00,55.8,33.1,30.50,NNE,13,0.0,3.0,42,0.00,,---,0.00,VWS V14.01,2013-01-10 18:45:00,
2013-01-10 13:50:00,56.4,33.0,30.50,NNE,13,4.0,4.0,41,0.00,,---,0.00,VWS V14.01,2013-01-10 18:50:00,
2013-01-10 13:55:00,55.9,32.0,30.50,NNE,13,1.0,4.0,40,0.00,,---,0.00,VWS V14.01,2013-01-10 18:55:00,
2013-01-10 14:00:00,55.4,31.5,30.50,West,269,0.0,4.0,40,0.00,,---,0.00,VWS V14.01,2013-01-10 19:00:00,
2013-01-10 14:05:00,55.0,31.1,30.51,West,271,1.0,2.0,40,0.00,,---,0.00,VWS V14.01,2013-01-10 19:05:00,
2013-01-10 14:10:00,54.8,31.6,30.50,West,271,2.0,3.0,41,0.00,,---,0.00,VWS V14.01,2013-01-10 19:10:00,
2013-01-10 14:15:00,54.9,32.3,30.50,North,360,2.0,3.0,42,0.00,,---,0.00,VWS V14.01,2013-01-10 19:15:00,
2013-01-10 14:20:00,55.0,31.8,30.50,North,360,2.0,3.0,41,0.00,,---,0.00,VWS V14.01,2013-01-10 19:20:00,
2013-01-10 14:25:00,55.1,31.8,30.50,North,360,3.0,3.0,41,0.00,,---,0.00,VWS V14.01,2013-01-10 19:25:00,
2013-01-10 14:30:00,55.1,31.8,30.50,North,360,1.0,3.0,41,0.00,,---,0.00,VWS V14.01,2013-01-10 19:30:00,
2013-01-10 14:35:00,55.5,32.2,30.49,West,279,2.0,3.0,41,0.00,,---,0.00,VWS V14.01,2013-01-10 19:35:00,
2013-01-10 14:40:00,55.8,31.9,30.49,NNW,340,2.0,3.0,40,0.00,,---,0.00,VWS V14.01,2013-01-10 19:40:00,
2013-01-10 14:45:00,55.8,31.9,30.50,NNW,340,1.0,3.0,40,0.00,,---,0.00,VWS V14.01,2013-01-10 19:45:00,
2013-01-10 14:50:00,56.2,31.6,30.50,WNW,302,1.0,4.0,39,0.00,,---,0.00,VWS V14.01,2013-01-10 19:50:00,
2013-01-10 14:55:00,56.6,32.0,30.50,WNW,302,1.0,4.0,39,0.00,,---,0.00,VWS V14.01,2013-01-10 19:55:00,
2013-01-10 15:00:00,56.3,31.7,30.50,WNW,302,1.0,4.0,39,0.00,,---,0.00,VWS V14.01,2013-01-10 20:00:00,
2013-01-10 15:05:00,56.5,32.5,30.50,WNW,302,2.0,3.0,40,0.00,,---,0.00,VWS V14.01,2013-01-10 20:05:00,
2013-01-10 15:10:00,56.8,32.1,30.50,NNW,342,1.0,4.0,39,0.00,,---,0.00,VWS V14.01,2013-01-10 20:10:00,
2013-01-10 15:15:00,57.2,32.5,30.50,NNW,342,1.0,4.0,39,0.00,,---,0.00,VWS V14.01,2013-01-10 20:15:00,
2013-01-10 15:20:00,56.9,31.6,30.50,NW,304,3.0,4.0,38,0.00,,---,0.00,VWS V14.01,2013-01-10 20:20:00,
2013-01-10 15:25:00,56.5,31.9,30.50,NW,305,2.0,4.0,39,0.00,,---,0.00,VWS V14.01,2013-01-10 20:25:00,
2013-01-10 15:30:00,56.3,31.7,30.50,NW,305,0.0,4.0,39,0.00,,---,0.00,VWS V14.01,2013-01-10 20:30:00,
2013-01-10 15:35:00,56.3,31.7,30.50,NW,304,0.0,2.0,39,0.00,,---,0.00,VWS V14.01,2013-01-10 20:35:00,
2013-01-10 15:40:00,56.3,31.7,30.50,NW,304,1.0,2.0,39,0.00,,---,0.00,VWS V14.01,2013-01-10 20:40:00,
2013-01-10 15:45:00,56.1,32.1,30.49,NW,305,0.0,2.0,40,0.00,,---,0.00,VWS V14.01,2013-01-10 20:45:00,
2013-01-10 15:50:00,55.8,33.1,30.49,NW,304,1.0,3.0,42,0.00,,---,0.00,VWS V14.01,2013-01-10 20:50:00,
2013-01-10 15:55:00,55.4,34.4,30.49,NW,304,2.0,3.0,45,0.00,,---,0.00,VWS V14.01,2013-01-10 20:55:00,
2013-01-10 16:00:00,54.9,32.8,30.50,North,10,2.0,4.0,43,0.00,,---,0.00,VWS V14.01,2013-01-10 21:00:00,
2013-01-10 16:05:00,54.6,33.1,30.50,NE,38,1.0,4.0,44,0.00,,---,0.00,VWS V14.01,2013-01-10 21:05:00,
2013-01-10 16:10:00,54.4,33.5,30.50,NE,44,2.0,4.0,45,0.00,,---,0.00,VWS V14.01,2013-01-10 21:10:00,
2013-01-10 16:15:00,54.2,33.3,30.50,NE,37,1.0,4.0,45,0.00,,---,0.00,VWS V14.01,2013-01-10 21:15:00,
2013-01-10 16:20:00,54.0,33.2,30.50,NE,36,2.0,4.0,45,0.00,,---,0.00,VWS V14.01,2013-01-10 21:20:00,
2013-01-10 16:25:00,53.7,33.4,30.50,NE,34,3.0,4.0,46,0.00,,---,0.00,VWS V14.01,2013-01-10 21:25:00,
2013-01-10 16:30:00,53.3,33.1,30.50,NNE,26,2.0,5.0,46,0.00,,---,0.00,VWS V14.01,2013-01-10 21:30:00,
2013-01-10 16:35:00,53.0,33.3,30.50,NNE,26,3.0,4.0,47,0.00,,---,0.00,VWS V14.01,2013-01-10 21:35:00,
2013-01-10 16:40:00,52.6,33.0,30.50,NNE,25,1.0,4.0,47,0.00,,---,0.00,VWS V14.01,2013-01-10 21:40:00,
2013-01-10 16:45:00,52.3,33.2,30.50,NNE,22,2.0,4.0,48,0.00,,---,0.00,VWS V14.01,2013-01-10 21:45:00,
2013-01-10 16:50:00,51.9,33.4,30.50,NNE,14,4.0,4.0,49,0.00,,---,0.00,VWS V14.01,2013-01-10 21:50:00,
2013-01-10 16:55:00,51.5,33.0,30.50,NNE,17,2.0,4.0,49,0.00,,---,0.00,VWS V14.01,2013-01-10 21:55:00,
2013-01-10 17:00:00,51.3,33.3,30.50,NNE,19,1.0,4.0,50,0.00,,---,0.00,VWS V14.01,2013-01-10 22:00:00,
2013-01-10 17:05:00,51.1,33.1,30.49,NNE,20,0.0,3.0,50,0.00,,---,0.00,VWS V14.01,2013-01-10 22:05:00,
2013-01-10 17:10:00,50.8,33.3,30.49,North,360,4.0,4.0,51,0.00,,---,0.00,VWS V14.01,2013-01-10 22:10:00,
2013-01-10 17:15:00,50.3,33.8,30.50,North,355,4.0,5.0,53,0.00,,---,0.00,VWS V14.01,2013-01-10 22:15:00,
2013-01-10 17:20:00,49.9,33.5,30.50,NNW,337,5.0,5.0,53,0.00,,---,0.00,VWS V14.01,2013-01-10 22:20:00,
2013-01-10 17:25:00,49.7,33.8,30.50,NNW,344,4.0,5.0,54,0.00,,---,0.00,VWS V14.01,2013-01-10 22:25:00,
2013-01-10 17:30:00,49.5,33.6,30.51,North,9,5.0,5.0,54,0.00,,---,0.00,VWS V14.01,2013-01-10 22:30:00,
2013-01-10 17:35:00,49.5,33.1,30.51,North,5,4.0,5.0,53,0.00,,---,0.00,VWS V14.01,2013-01-10 22:35:00,
2013-01-10 17:40:00,49.5,32.6,30.51,NW,321,4.0,5.0,52,0.00,,---,0.00,VWS V14.01,2013-01-10 22:40:00,
2013-01-10 17:45:00,49.4,33.0,30.51,NNW,343,1.0,5.0,53,0.00,,---,0.00,VWS V14.01,2013-01-10 22:45:00,
2013-01-10 17:50:00,49.3,32.9,30.51,NNW,343,1.0,5.0,53,0.00,,---,0.00,VWS V14.01,2013-01-10 22:50:00,
2013-01-10 17:55:00,49.1,33.2,30.51,NNW,342,0.0,5.0,54,0.00,,---,0.00,VWS V14.01,2013-01-10 22:55:00,
2013-01-10 18:00:00,48.9,32.5,30.51,NNW,342,0.0,5.0,53,0.00,,---,0.00,VWS V14.01,2013-01-10 23:00:00,
2013-01-10 18:05:00,48.8,32.4,30.51,NNW,342,1.0,1.0,53,0.00,,---,0.00,VWS V14.01,2013-01-10 23:05:00,
2013-01-10 18:10:00,48.6,33.6,30.51,NNW,343,0.0,1.0,56,0.00,,---,0.00,VWS V14.01,2013-01-10 23:10:00,
2013-01-10 18:15:00,48.3,33.3,30.52,NNW,343,0.0,1.0,56,0.00,,---,0.00,VWS V14.01,2013-01-10 23:15:00,
2013-01-10 18:20:00,48.1,33.2,30.51,NNW,343,0.0,1.0,56,0.00,,---,0.00,VWS V14.01,2013-01-10 23:20:00,
2013-01-10 18:25:00,47.8,33.8,30.52,NNW,342,1.0,2.0,58,0.00,,---,0.00,VWS V14.01,2013-01-10 23:25:00,
2013-01-10 18:30:00,47.4,33.8,30.52,NNW,342,0.0,2.0,59,0.00,,---,0.00,VWS V14.01,2013-01-10 23:30:00,
2013-01-10 18:35:00,47.1,33.9,30.52,NNW,343,0.0,0.0,60,0.00,,---,0.00,VWS V14.01,2013-01-10 23:35:00,
2013-01-10 18:40:00,46.9,33.8,30.52,NNW,343,0.0,0.0,60,0.00,,---,0.00,VWS V14.01,2013-01-10 23:40:00,
2013-01-10 18:45:00,46.9,33.8,30.52,NNW,343,0.0,1.0,60,0.00,,---,0.00,VWS V14.01,2013-01-10 23:45:00,
2013-01-10 18:50:00,46.9,33.8,30.52,NNW,342,0.0,1.0,60,0.00,,---,0.00,VWS V14.01,2013-01-10 23:50:00,
2013-01-10 18:55:00,46.8,33.7,30.52,NNW,343,0.0,1.0,60,0.00,,---,0.00,VWS V14.01,2013-01-10 23:55:00,
2013-01-10 19:00:00,46.7,33.6,30.52,NNW,342,0.0,1.0,60,0.00,,---,0.00,VWS V14.01,2013-01-11 00:00:00,
2013-01-10 19:05:00,46.6,34.3,30.52,NNW,342,0.0,0.0,62,0.00,,---,0.00,VWS V14.01,2013-01-11 00:05:00,
2013-01-10 19:10:00,46.4,34.1,30.52,NNW,343,0.0,0.0,62,0.00,,---,0.00,VWS V14.01,2013-01-11 00:10:00,
2013-01-10 19:15:00,46.2,34.3,30.52,NNW,343,0.0,0.0,63,0.00,,---,0.00,VWS V14.01,2013-01-11 00:15:00,
2013-01-10 19:20:00,46.0,34.1,30.52,NNW,343,0.0,0.0,63,0.00,,---,0.00,VWS V14.01,2013-01-11 00:20:00,
2013-01-10 19:25:00,45.5,35.2,30.52,NNW,342,2.0,2.0,67,0.00,,---,0.00,VWS V14.01,2013-01-11 00:25:00,
2013-01-10 19:30:00,44.6,35.1,30.51,NNW,342,0.0,2.0,69,0.00,,---,0.00,VWS V14.01,2013-01-11 00:30:00,
2013-01-10 19:35:00,44.1,35.0,30.52,NNW,342,1.0,1.0,70,0.00,,---,0.00,VWS V14.01,2013-01-11 00:35:00,
2013-01-10 19:40:00,44.1,34.6,30.52,NNW,343,0.0,1.0,69,0.00,,---,0.00,VWS V14.01,2013-01-11 00:40:00,
2013-01-10 19:45:00,44.1,34.6,30.52,NNW,343,0.0,1.0,69,0.00,,---,0.00,VWS V14.01,2013-01-11 00:45:00,
2013-01-10 19:50:00,44.1,34.2,30.51,NNW,343,0.0,1.0,68,0.00,,---,0.00,VWS V14.01,2013-01-11 00:50:00,
2013-01-10 19:55:00,44.1,34.6,30.52,NNW,343,0.0,1.0,69,0.00,,---,0.00,VWS V14.01,2013-01-11 00:55:00,
2013-01-10 20:00:00,44.0,34.5,30.51,NNW,342,1.0,1.0,69,0.00,,---,0.00,VWS V14.01,2013-01-11 01:00:00,
2013-01-10 20:05:00,44.0,34.5,30.51,NNW,342,0.0,1.0,69,0.00,,---,0.00,VWS V14.01,2013-01-11 01:05:00,
2013-01-10 20:10:00,43.9,34.4,30.51,NNW,342,0.0,1.0,69,0.00,,---,0.00,VWS V14.01,2013-01-11 01:10:00,
2013-01-10 20:15:00,43.7,34.2,30.51,NNW,342,0.0,1.0,69,0.00,,---,0.00,VWS V14.01,2013-01-11 01:15:00,
2013-01-10 20:20:00,43.4,34.3,30.51,NNW,343,0.0,1.0,70,0.00,,---,0.00,VWS V14.01,2013-01-11 01:20:00,
2013-01-10 20:25:00,43.1,34.0,30.51,NNW,342,0.0,1.0,70,0.00,,---,0.00,VWS V14.01,2013-01-11 01:25:00,
2013-01-10 20:30:00,42.9,33.8,30.51,NNW,343,0.0,1.0,70,0.00,,---,0.00,VWS V14.01,2013-01-11 01:30:00,
2013-01-10 20:35:00,42.8,33.7,30.51,NNW,342,0.0,0.0,70,0.00,,---,0.00,VWS V14.01,2013-01-11 01:35:00,
2013-01-10 20:40:00,42.6,33.5,30.51,NNW,342,0.0,0.0,70,0.00,,---,0.00,VWS V14.01,2013-01-11 01:40:00,
2013-01-10 20:45:00,42.5,33.4,30.51,NNW,342,0.0,0.0,70,0.00,,---,0.00,VWS V14.01,2013-01-11 01:45:00,
2013-01-10 20:50:00,42.4,33.3,30.51,NNW,342,0.0,0.0,70,0.00,,---,0.00,VWS V14.01,2013-01-11 01:50:00,
2013-01-10 20:55:00,42.0,33.3,30.51,NNW,343,0.0,0.0,71,0.00,,---,0.00,VWS V14.01,2013-01-11 01:55:00,
2013-01-10 21:00:00,41.6,33.6,30.51,NNW,343,0.0,1.0,73,0.00,,---,0.00,VWS V14.01,2013-01-11 02:00:00,
2013-01-10 21:05:00,41.4,33.4,30.50,NNW,342,0.0,0.0,73,0.00,,---,0.00,VWS V14.01,2013-01-11 02:05:00,
2013-01-10 21:10:00,41.3,33.3,30.50,NNW,342,0.0,0.0,73,0.00,,---,0.00,VWS V14.01,2013-01-11 02:10:00,
2013-01-10 21:15:00,41.2,33.2,30.50,NNW,342,0.0,0.0,73,0.00,,---,0.00,VWS V14.01,2013-01-11 02:15:00,
2013-01-10 21:20:00,41.3,33.3,30.50,NNW,343,0.0,2.0,73,0.00,,---,0.00,VWS V14.01,2013-01-11 02:20:00,
2013-01-10 21:25:00,41.3,33.3,30.50,NNW,343,0.0,2.0,73,0.00,,---,0.00,VWS V14.01,2013-01-11 02:25:00,
2013-01-10 21:30:00,41.1,33.5,30.50,NNW,343,0.0,2.0,74,0.00,,---,0.00,VWS V14.01,2013-01-11 02:30:00,
2013-01-10 21:35:00,40.9,33.6,30.50,NNW,343,0.0,0.0,75,0.00,,---,0.00,VWS V14.01,2013-01-11 02:35:00,
2013-01-10 21:40:00,40.8,33.2,30.50,NNW,343,0.0,0.0,74,0.00,,---,0.00,VWS V14.01,2013-01-11 02:40:00,
2013-01-10 21:45:00,40.8,33.2,30.50,NNW,342,0.0,1.0,74,0.00,,---,0.00,VWS V14.01,2013-01-11 02:45:00,
2013-01-10 21:50:00,40.8,33.5,30.50,NNW,342,0.0,1.0,75,0.00,,---,0.00,VWS V14.01,2013-01-11 02:50:00,
2013-01-10 21:55:00,40.6,33.3,30.50,NNW,343,0.0,1.0,75,0.00,,---,0.00,VWS V14.01,2013-01-11 02:55:00,
2013-01-10 22:00:00,40.6,33.3,30.50,NNW,342,0.0,1.0,75,0.00,,---,0.00,VWS V14.01,2013-01-11 03:00:00,
2013-01-10 22:05:00,40.5,33.5,30.49,NNW,343,0.0,0.0,76,0.00,,---,0.00,VWS V14.01,2013-01-11 03:05:00,
2013-01-10 22:10:00,40.6,33.6,30.49,NNW,343,0.0,0.0,76,0.00,,---,0.00,VWS V14.01,2013-01-11 03:10:00,
2013-01-10 22:15:00,40.5,33.2,30.49,NNW,343,0.0,0.0,75,0.00,,---,0.00,VWS V14.01,2013-01-11 03:15:00,
2013-01-10 22:20:00,40.5,33.2,30.49,NNW,343,0.0,1.0,75,0.00,,---,0.00,VWS V14.01,2013-01-11 03:20:00,
2013-01-10 22:25:00,40.4,33.1,30.49,NNW,342,0.0,1.0,75,0.00,,---,0.00,VWS V14.01,2013-01-11 03:25:00,
2013-01-10 22:30:00,40.4,33.1,30.49,NNW,342,0.0,1.0,75,0.00,,---,0.00,VWS V14.01,2013-01-11 03:30:00,
2013-01-10 22:35:00,40.3,32.7,30.49,NNW,342,0.0,0.0,74,0.00,,---,0.00,VWS V14.01,2013-01-11 03:35:00,
2013-01-10 22:40:00,40.3,32.7,30.48,NNW,343,1.0,2.0,74,0.00,,---,0.00,VWS V14.01,2013-01-11 03:40:00,
2013-01-10 22:45:00,40.0,33.1,30.48,NNW,342,1.0,2.0,76,0.00,,---,0.00,VWS V14.01,2013-01-11 03:45:00,
2013-01-10 22:50:00,39.8,32.9,30.48,NNW,343,0.0,2.0,76,0.00,,---,0.00,VWS V14.01,2013-01-11 03:50:00,
2013-01-10 22:55:00,39.7,32.8,30.48,NNW,343,2.0,2.0,76,0.00,,---,0.00,VWS V14.01,2013-01-11 03:55:00,
2013-01-10 23:00:00,39.7,33.1,30.48,NNW,342,0.0,2.0,77,0.00,,---,0.00,VWS V14.01,2013-01-11 04:00:00,
2013-01-10 23:05:00,39.4,32.8,30.48,NNW,342,1.0,3.0,77,0.00,,---,0.00,VWS V14.01,2013-01-11 04:05:00,
2013-01-10 23:10:00,39.3,33.0,30.48,NNW,343,0.0,3.0,78,0.00,,---,0.00,VWS V14.01,2013-01-11 04:10:00,
2013-01-10 23:15:00,39.3,33.3,30.48,NNW,343,1.0,3.0,79,0.00,,---,0.00,VWS V14.01,2013-01-11 04:15:00,
2013-01-10 23:20:00,39.3,33.0,30.48,NNW,343,0.0,3.0,78,0.00,,---,0.00,VWS V14.01,2013-01-11 04:20:00,
2013-01-10 23:25:00,39.2,33.2,30.48,NNW,342,0.0,3.0,79,0.00,,---,0.00,VWS V14.01,2013-01-11 04:25:00,
2013-01-10 23:30:00,39.1,33.2,30.48,NNW,342,0.0,3.0,79,0.00,,---,0.00,VWS V14.01,2013-01-11 04:30:00,
2013-01-10 23:35:00,39.0,33.0,30.48,NNW,343,0.0,0.0,79,0.00,,---,0.00,VWS V14.01,2013-01-11 04:35:00,
2013-01-10 23:40:00,39.0,33.0,30.48,NNW,343,0.0,3.0,79,0.00,,---,0.00,VWS V14.01,2013-01-11 04:40:00,
2013-01-10 23:45:00,39.0,33.0,30.48,NNW,342,0.0,3.0,79,0.00,,---,0.00,VWS V14.01,2013-01-11 04:45:00,
2013-01-10 23:50:00,39.0,32.7,30.48,NNW,342,0.0,3.0,78,0.00,,---,0.00,VWS V14.01,2013-01-11 04:50:00,
2013-01-10 23:55:00,38.9,32.6,30.47,NNW,342,0.0,3.0,78,0.00,,---,0.00,VWS V14.01,2013-01-11 04:55:00,